Aeroporto :
LOGIN :

Iscrizione | Disclaimer

   EN    FR    IT 

 










Sommario :    VFR   VFR Marginale   IFR   IFR Intensivo   IFR Molto Intensivo
Visibilità : 
Base nubi : 
>= 8 km
>= 3000ft
5 / 8 km
1000 / 3000 ft
1500m / 5 km
500 / 1000 ft
800 / 1500m
200 / 500 ft
< 800m
< 200 ft
Simboli :   Temporali  Nebbia  Neve Forte  Precipitazioni Forti  Vento > 20 kt
SIGMETs :   Varie  Temporali  Ghiacco  Turbolenza  Onda orograficha  Ceneri Vulcaniche






- Altitudine del aeroporto : 138 ft
- Codice IATA : RLG


ETNL - Rostock Laage

ULTIMO METAR :
  • 141220Z 22009KT 9999 -RA BKN009 04/03 Q0984 GRN

METARs OBSOLETI :
  • 141120Z 20006KT 9999 -RA FEW006 BKN009 04/03 Q0983 GRN
  • 141046Z 20006KT 8000 FEW006 BKN015 BKN050 04/03 Q0983 WHT
  • 141020Z 19007KT 8000 FEW006 SCT012 BKN050 04/03 Q0983 BLU

TAF TAF ETNL
Valido dal 14 a 12 ore il 15 a 00 ore UTC


141107Z 1412/1424 19012KT 9999 NSW SCT007 BKN015
TEMPO 1412/1424 22015G25KT 4000 SHRA BKN007TCU BY ETGL



MetMap, La meteo Aeronautica in un colpo d'occhio ! - Copyright ORBIFLY Dicembre 2007 - Disclaimer

ORBIFLY MET'MAP TEAM :

Programmazione e sviluppo : Alexandra Zaïnal
Concezione : Baudouin d'Aumeries
Aiuto per la programmazione : Marc-Olivier Méhu
Supporto tecnico e logistico : Manuel Goepfert
Aiuto per la traduzione : Arnaldo La Scala

Contatto : metmap@orbifly.com




FONTI E CREDITI :

   NOAA